sensor_id;sensor_type;location;lat;lon;timestamp;pressure;altitude;pressure_sealevel;temperature;humidity
39793;BME280;26080;42.264;24.536;2023-04-15T00:01:25;98557.66;;;9.81;100.00
39793;BME280;26080;42.264;24.536;2023-04-15T00:03:52;98549.84;;;9.49;100.00
39793;BME280;26080;42.264;24.536;2023-04-15T00:06:18;98537.50;;;9.20;100.00
39793;BME280;26080;42.264;24.536;2023-04-15T00:08:45;98576.63;;;9.22;100.00
39793;BME280;26080;42.264;24.536;2023-04-15T00:11:11;98551.41;;;8.87;100.00
39793;BME280;26080;42.264;24.536;2023-04-15T00:13:37;98570.16;;;8.96;100.00
39793;BME280;26080;42.264;24.536;2023-04-15T00:16:03;98568.38;;;8.96;100.00
39793;BME280;26080;42.264;24.536;2023-04-15T00:18:28;98559.53;;;8.99;100.00
39793;BME280;26080;42.264;24.536;2023-04-15T00:20:54;98560.47;;;8.98;100.00
39793;BME280;26080;42.264;24.536;2023-04-15T00:23:20;98531.88;;;8.61;100.00
39793;BME280;26080;42.264;24.536;2023-04-15T00:25:45;98567.38;;;8.66;100.00
39793;BME280;26080;42.264;24.536;2023-04-15T00:28:11;98572.28;;;8.54;100.00
39793;BME280;26080;42.264;24.536;2023-04-15T00:30:36;98564.59;;;8.51;100.00
39793;BME280;26080;42.264;24.536;2023-04-15T00:33:02;98564.91;;;8.45;100.00
39793;BME280;26080;42.264;24.536;2023-04-15T00:35:28;98567.84;;;8.39;100.00
39793;BME280;26080;42.264;24.536;2023-04-15T00:37:53;98569.72;;;8.36;100.00
39793;BME280;26080;42.264;24.536;2023-04-15T00:40:20;98559.50;;;8.14;100.00
39793;BME280;26080;42.264;24.536;2023-04-15T00:42:46;98588.41;;;8.09;100.00
39793;BME280;26080;42.264;24.536;2023-04-15T00:45:11;98586.59;;;7.92;100.00
39793;BME280;26080;42.264;24.536;2023-04-15T00:47:38;98588.09;;;7.79;100.00
39793;BME280;26080;42.264;24.536;2023-04-15T00:50:06;98577.34;;;7.68;100.00
39793;BME280;26080;42.264;24.536;2023-04-15T00:52:32;98576.25;;;7.55;100.00
39793;BME280;26080;42.264;24.536;2023-04-15T00:54:58;98574.19;;;7.42;100.00
39793;BME280;26080;42.264;24.536;2023-04-15T00:57:23;98566.84;;;7.51;100.00
39793;BME280;26080;42.264;24.536;2023-04-15T00:59:50;98559.59;;;7.38;100.00
39793;BME280;26080;42.264;24.536;2023-04-15T01:02:16;98563.06;;;7.20;100.00
39793;BME280;26080;42.264;24.536;2023-04-15T01:04:42;98566.13;;;7.09;100.00
39793;BME280;26080;42.264;24.536;2023-04-15T01:07:07;98563.13;;;7.00;100.00
39793;BME280;26080;42.264;24.536;2023-04-15T01:09:33;98564.00;;;6.99;100.00
39793;BME280;26080;42.264;24.536;2023-04-15T01:11:59;98549.31;;;6.98;100.00
39793;BME280;26080;42.264;24.536;2023-04-15T01:14:24;98558.03;;;6.97;100.00
39793;BME280;26080;42.264;24.536;2023-04-15T01:16:51;98555.94;;;7.05;100.00
39793;BME280;26080;42.264;24.536;2023-04-15T01:19:17;98554.78;;;6.92;100.00
39793;BME280;26080;42.264;24.536;2023-04-15T01:21:42;98542.56;;;7.12;100.00
39793;BME280;26080;42.264;24.536;2023-04-15T01:24:09;98543.75;;;7.24;100.00
39793;BME280;26080;42.264;24.536;2023-04-15T01:26:39;98537.72;;;7.24;100.00
39793;BME280;26080;42.264;24.536;2023-04-15T01:29:05;98541.16;;;7.24;100.00
39793;BME280;26080;42.264;24.536;2023-04-15T01:31:31;98552.28;;;7.09;100.00
39793;BME280;26080;42.264;24.536;2023-04-15T01:33:57;98558.16;;;6.94;100.00
39793;BME280;26080;42.264;24.536;2023-04-15T01:36:22;98532.97;;;6.75;100.00
39793;BME280;26080;42.264;24.536;2023-04-15T01:38:48;98570.28;;;6.95;100.00
39793;BME280;26080;42.264;24.536;2023-04-15T01:41:13;98561.13;;;6.86;100.00
39793;BME280;26080;42.264;24.536;2023-04-15T01:43:39;98546.38;;;6.66;100.00
39793;BME280;26080;42.264;24.536;2023-04-15T01:46:04;98558.16;;;6.75;100.00
39793;BME280;26080;42.264;24.536;2023-04-15T01:48:30;98560.00;;;6.71;100.00
39793;BME280;26080;42.264;24.536;2023-04-15T01:50:57;98571.69;;;6.63;100.00
39793;BME280;26080;42.264;24.536;2023-04-15T01:53:25;98588.00;;;6.46;100.00
39793;BME280;26080;42.264;24.536;2023-04-15T01:55:51;98601.53;;;6.34;100.00
39793;BME280;26080;42.264;24.536;2023-04-15T01:58:17;98607.63;;;6.33;100.00
39793;BME280;26080;42.264;24.536;2023-04-15T02:00:43;98605.97;;;6.30;100.00
39793;BME280;26080;42.264;24.536;2023-04-15T02:03:08;98590.72;;;6.22;100.00
39793;BME280;26080;42.264;24.536;2023-04-15T02:05:34;98592.66;;;6.17;100.00
39793;BME280;26080;42.264;24.536;2023-04-15T02:07:59;98599.66;;;6.15;100.00
39793;BME280;26080;42.264;24.536;2023-04-15T02:10:25;98604.97;;;6.12;100.00
39793;BME280;26080;42.264;24.536;2023-04-15T02:12:52;98604.41;;;6.06;100.00
39793;BME280;26080;42.264;24.536;2023-04-15T02:15:18;98603.78;;;5.99;100.00
39793;BME280;26080;42.264;24.536;2023-04-15T02:17:44;98617.47;;;6.04;100.00
39793;BME280;26080;42.264;24.536;2023-04-15T02:20:15;98581.56;;;5.69;100.00
39793;BME280;26080;42.264;24.536;2023-04-15T02:22:41;98617.28;;;5.85;100.00
39793;BME280;26080;42.264;24.536;2023-04-15T02:25:07;98593.72;;;5.68;100.00
39793;BME280;26080;42.264;24.536;2023-04-15T02:27:34;98615.72;;;5.81;100.00
39793;BME280;26080;42.264;24.536;2023-04-15T02:29:59;98609.63;;;5.82;100.00
39793;BME280;26080;42.264;24.536;2023-04-15T02:32:25;98605.25;;;5.83;100.00
39793;BME280;26080;42.264;24.536;2023-04-15T02:34:50;98587.53;;;5.71;100.00
39793;BME280;26080;42.264;24.536;2023-04-15T02:37:16;98598.38;;;5.82;100.00
39793;BME280;26080;42.264;24.536;2023-04-15T02:39:43;98614.56;;;5.90;100.00
39793;BME280;26080;42.264;24.536;2023-04-15T02:42:08;98616.00;;;5.97;100.00
39793;BME280;26080;42.264;24.536;2023-04-15T02:44:34;98615.88;;;6.00;100.00
39793;BME280;26080;42.264;24.536;2023-04-15T02:47:00;98607.41;;;5.95;100.00
39793;BME280;26080;42.264;24.536;2023-04-15T02:49:26;98602.22;;;5.95;100.00
39793;BME280;26080;42.264;24.536;2023-04-15T02:51:54;98587.97;;;5.82;100.00
39793;BME280;26080;42.264;24.536;2023-04-15T02:54:20;98610.19;;;5.89;100.00
39793;BME280;26080;42.264;24.536;2023-04-15T02:56:47;98613.84;;;5.85;100.00
39793;BME280;26080;42.264;24.536;2023-04-15T02:59:12;98608.31;;;5.94;100.00
39793;BME280;26080;42.264;24.536;2023-04-15T03:01:38;98617.28;;;5.85;100.00
39793;BME280;26080;42.264;24.536;2023-04-15T03:04:03;98628.09;;;5.75;100.00
39793;BME280;26080;42.264;24.536;2023-04-15T03:06:29;98632.88;;;5.63;100.00
39793;BME280;26080;42.264;24.536;2023-04-15T03:08:55;98629.44;;;5.40;100.00
39793;BME280;26080;42.264;24.536;2023-04-15T03:11:21;98636.56;;;5.34;100.00
39793;BME280;26080;42.264;24.536;2023-04-15T03:13:49;98622.25;;;5.23;100.00
39793;BME280;26080;42.264;24.536;2023-04-15T03:16:15;98630.44;;;5.12;100.00
39793;BME280;26080;42.264;24.536;2023-04-15T03:18:41;98639.31;;;5.05;100.00
39793;BME280;26080;42.264;24.536;2023-04-15T03:21:06;98641.47;;;4.94;100.00
39793;BME280;26080;42.264;24.536;2023-04-15T03:23:32;98644.00;;;4.95;100.00
39793;BME280;26080;42.264;24.536;2023-04-15T03:26:01;98632.25;;;4.85;100.00
39793;BME280;26080;42.264;24.536;2023-04-15T03:28:44;98614.25;;;4.81;100.00
39793;BME280;26080;42.264;24.536;2023-04-15T03:31:10;98622.00;;;4.82;100.00
39793;BME280;26080;42.264;24.536;2023-04-15T03:33:45;98636.78;;;5.03;100.00
39793;BME280;26080;42.264;24.536;2023-04-15T03:36:10;98635.94;;;5.03;100.00
39793;BME280;26080;42.264;24.536;2023-04-15T03:38:36;98633.22;;;5.08;100.00
39793;BME280;26080;42.264;24.536;2023-04-15T03:41:01;98627.72;;;5.15;100.00
39793;BME280;26080;42.264;24.536;2023-04-15T03:43:27;98639.50;;;5.00;100.00
39793;BME280;26080;42.264;24.536;2023-04-15T03:45:52;98647.41;;;4.97;100.00
39793;BME280;26080;42.264;24.536;2023-04-15T03:48:17;98651.63;;;5.00;100.00
39793;BME280;26080;42.264;24.536;2023-04-15T03:50:43;98650.50;;;5.07;100.00
39793;BME280;26080;42.264;24.536;2023-04-15T03:53:08;98664.34;;;5.08;100.00
39793;BME280;26080;42.264;24.536;2023-04-15T03:55:34;98675.59;;;5.06;100.00
39793;BME280;26080;42.264;24.536;2023-04-15T03:57:59;98675.41;;;5.13;100.00
39793;BME280;26080;42.264;24.536;2023-04-15T04:00:25;98647.97;;;5.05;100.00
39793;BME280;26080;42.264;24.536;2023-04-15T04:02:50;98673.56;;;5.40;100.00
39793;BME280;26080;42.264;24.536;2023-04-15T04:05:15;98687.03;;;5.51;100.00
39793;BME280;26080;42.264;24.536;2023-04-15T04:07:41;98690.59;;;5.48;100.00
39793;BME280;26080;42.264;24.536;2023-04-15T04:10:07;98699.88;;;5.54;100.00
39793;BME280;26080;42.264;24.536;2023-04-15T04:12:32;98698.31;;;5.50;100.00
39793;BME280;26080;42.264;24.536;2023-04-15T04:14:58;98691.09;;;5.33;100.00
39793;BME280;26080;42.264;24.536;2023-04-15T04:17:23;98688.56;;;5.31;100.00
39793;BME280;26080;42.264;24.536;2023-04-15T04:19:48;98692.41;;;5.21;100.00
39793;BME280;26080;42.264;24.536;2023-04-15T04:22:14;98685.13;;;5.08;100.00
39793;BME280;26080;42.264;24.536;2023-04-15T04:24:40;98703.66;;;5.22;100.00
39793;BME280;26080;42.264;24.536;2023-04-15T04:27:05;98710.88;;;5.37;100.00
39793;BME280;26080;42.264;24.536;2023-04-15T04:29:30;98708.72;;;5.50;100.00
39793;BME280;26080;42.264;24.536;2023-04-15T04:31:56;98710.44;;;5.73;100.00
39793;BME280;26080;42.264;24.536;2023-04-15T04:34:21;98700.56;;;5.82;100.00
39793;BME280;26080;42.264;24.536;2023-04-15T04:36:46;98709.44;;;6.00;100.00
39793;BME280;26080;42.264;24.536;2023-04-15T04:39:12;98714.00;;;6.17;100.00
39793;BME280;26080;42.264;24.536;2023-04-15T04:41:37;98712.59;;;6.30;100.00
39793;BME280;26080;42.264;24.536;2023-04-15T04:44:03;98729.06;;;6.52;100.00
39793;BME280;26080;42.264;24.536;2023-04-15T04:46:28;98724.75;;;6.73;100.00
39793;BME280;26080;42.264;24.536;2023-04-15T04:48:54;98724.63;;;6.76;100.00
39793;BME280;26080;42.264;24.536;2023-04-15T04:51:19;98728.91;;;6.99;100.00
39793;BME280;26080;42.264;24.536;2023-04-15T04:53:45;98709.09;;;7.16;100.00
39793;BME280;26080;42.264;24.536;2023-04-15T04:56:10;98723.97;;;7.53;100.00
39793;BME280;26080;42.264;24.536;2023-04-15T04:58:36;98719.50;;;7.75;100.00
39793;BME280;26080;42.264;24.536;2023-04-15T05:01:02;98729.03;;;7.95;100.00
39793;BME280;26080;42.264;24.536;2023-04-15T05:03:28;98730.88;;;8.12;100.00
39793;BME280;26080;42.264;24.536;2023-04-15T05:05:53;98732.75;;;8.46;100.00
39793;BME280;26080;42.264;24.536;2023-04-15T05:08:19;98730.06;;;8.66;100.00
39793;BME280;26080;42.264;24.536;2023-04-15T05:10:45;98725.19;;;8.76;100.00
39793;BME280;26080;42.264;24.536;2023-04-15T05:13:10;98731.06;;;8.98;100.00
39793;BME280;26080;42.264;24.536;2023-04-15T05:15:36;98734.84;;;9.10;100.00
39793;BME280;26080;42.264;24.536;2023-04-15T05:18:03;98723.84;;;9.03;100.00
39793;BME280;26080;42.264;24.536;2023-04-15T05:20:29;98731.44;;;9.25;100.00
39793;BME280;26080;42.264;24.536;2023-04-15T05:22:55;98734.59;;;9.49;100.00
39793;BME280;26080;42.264;24.536;2023-04-15T05:25:20;98734.19;;;9.72;100.00
39793;BME280;26080;42.264;24.536;2023-04-15T05:27:46;98735.59;;;9.79;100.00
39793;BME280;26080;42.264;24.536;2023-04-15T05:30:11;98739.72;;;9.84;100.00
39793;BME280;26080;42.264;24.536;2023-04-15T05:32:37;98740.66;;;9.98;100.00
39793;BME280;26080;42.264;24.536;2023-04-15T05:35:03;98749.34;;;9.99;100.00
39793;BME280;26080;42.264;24.536;2023-04-15T05:37:28;98747.53;;;10.17;100.00
39793;BME280;26080;42.264;24.536;2023-04-15T05:39:54;98754.41;;;10.35;100.00
39793;BME280;26080;42.264;24.536;2023-04-15T05:42:19;98766.25;;;10.58;100.00
39793;BME280;26080;42.264;24.536;2023-04-15T05:44:45;98771.78;;;10.67;100.00
39793;BME280;26080;42.264;24.536;2023-04-15T05:47:10;98773.97;;;10.75;100.00
39793;BME280;26080;42.264;24.536;2023-04-15T05:49:36;98755.56;;;10.77;100.00
39793;BME280;26080;42.264;24.536;2023-04-15T05:52:01;98769.03;;;11.01;100.00
39793;BME280;26080;42.264;24.536;2023-04-15T05:54:27;98782.19;;;11.15;100.00
39793;BME280;26080;42.264;24.536;2023-04-15T05:56:53;98780.38;;;11.31;100.00
39793;BME280;26080;42.264;24.536;2023-04-15T05:59:18;98774.31;;;11.45;100.00
39793;BME280;26080;42.264;24.536;2023-04-15T06:01:43;98792.88;;;11.56;100.00
39793;BME280;26080;42.264;24.536;2023-04-15T06:04:09;98792.81;;;11.72;100.00
39793;BME280;26080;42.264;24.536;2023-04-15T06:06:35;98786.13;;;11.96;100.00
39793;BME280;26080;42.264;24.536;2023-04-15T06:09:01;98786.47;;;12.19;100.00
39793;BME280;26080;42.264;24.536;2023-04-15T06:11:27;98788.50;;;12.42;100.00
39793;BME280;26080;42.264;24.536;2023-04-15T06:13:52;98792.97;;;12.68;100.00
39793;BME280;26080;42.264;24.536;2023-04-15T06:16:17;98800.06;;;12.81;100.00
39793;BME280;26080;42.264;24.536;2023-04-15T06:18:43;98788.16;;;12.75;100.00
39793;BME280;26080;42.264;24.536;2023-04-15T06:21:09;98796.91;;;12.75;100.00
39793;BME280;26080;42.264;24.536;2023-04-15T06:23:34;98764.25;;;12.65;100.00
39793;BME280;26080;42.264;24.536;2023-04-15T06:26:01;98795.00;;;12.78;100.00
39793;BME280;26080;42.264;24.536;2023-04-15T06:28:26;98802.44;;;12.71;100.00
39793;BME280;26080;42.264;24.536;2023-04-15T06:30:52;98799.94;;;12.55;100.00
39793;BME280;26080;42.264;24.536;2023-04-15T06:33:18;98808.13;;;12.51;100.00
39793;BME280;26080;42.264;24.536;2023-04-15T06:35:43;98809.19;;;12.61;100.00
39793;BME280;26080;42.264;24.536;2023-04-15T06:38:08;98804.41;;;12.67;100.00
39793;BME280;26080;42.264;24.536;2023-04-15T06:40:34;98809.66;;;12.67;100.00
39793;BME280;26080;42.264;24.536;2023-04-15T06:43:00;98818.03;;;12.87;100.00
39793;BME280;26080;42.264;24.536;2023-04-15T06:45:25;98814.88;;;13.09;100.00
39793;BME280;26080;42.264;24.536;2023-04-15T06:47:51;98803.28;;;12.98;100.00
39793;BME280;26080;42.264;24.536;2023-04-15T06:50:17;98822.13;;;13.05;100.00
39793;BME280;26080;42.264;24.536;2023-04-15T06:52:42;98818.34;;;13.09;100.00
39793;BME280;26080;42.264;24.536;2023-04-15T06:55:08;98820.75;;;13.26;100.00
39793;BME280;26080;42.264;24.536;2023-04-15T06:57:34;98820.09;;;13.50;100.00
39793;BME280;26080;42.264;24.536;2023-04-15T06:59:59;98822.94;;;13.59;100.00
39793;BME280;26080;42.264;24.536;2023-04-15T07:02:25;98813.56;;;13.55;100.00
39793;BME280;26080;42.264;24.536;2023-04-15T07:04:51;98827.59;;;13.81;100.00
39793;BME280;26080;42.264;24.536;2023-04-15T07:07:16;98831.91;;;14.33;100.00
39793;BME280;26080;42.264;24.536;2023-04-15T07:09:42;98827.28;;;14.86;100.00
39793;BME280;26080;42.264;24.536;2023-04-15T07:12:08;98834.63;;;15.18;100.00
39793;BME280;26080;42.264;24.536;2023-04-15T07:14:34;98836.75;;;15.60;100.00
39793;BME280;26080;42.264;24.536;2023-04-15T07:17:00;98836.13;;;15.92;100.00
39793;BME280;26080;42.264;24.536;2023-04-15T07:19:26;98836.97;;;16.15;100.00
39793;BME280;26080;42.264;24.536;2023-04-15T07:21:51;98829.66;;;16.29;100.00
39793;BME280;26080;42.264;24.536;2023-04-15T07:24:17;98837.22;;;16.56;100.00
39793;BME280;26080;42.264;24.536;2023-04-15T07:26:44;98840.00;;;16.55;100.00
39793;BME280;26080;42.264;24.536;2023-04-15T07:29:10;98851.66;;;16.19;100.00
39793;BME280;26080;42.264;24.536;2023-04-15T07:31:35;98844.97;;;15.80;100.00
39793;BME280;26080;42.264;24.536;2023-04-15T07:34:01;98821.31;;;15.19;100.00
39793;BME280;26080;42.264;24.536;2023-04-15T07:36:27;98851.88;;;14.74;100.00
39793;BME280;26080;42.264;24.536;2023-04-15T07:38:53;98828.09;;;14.37;100.00
39793;BME280;26080;42.264;24.536;2023-04-15T07:41:19;98847.94;;;14.17;100.00
39793;BME280;26080;42.264;24.536;2023-04-15T07:43:46;98842.66;;;14.05;100.00
39793;BME280;26080;42.264;24.536;2023-04-15T07:46:12;98830.84;;;14.10;100.00
39793;BME280;26080;42.264;24.536;2023-04-15T07:48:38;98812.53;;;14.09;100.00
39793;BME280;26080;42.264;24.536;2023-04-15T07:51:03;98828.03;;;14.13;100.00
39793;BME280;26080;42.264;24.536;2023-04-15T07:53:29;98830.34;;;14.18;100.00
39793;BME280;26080;42.264;24.536;2023-04-15T07:55:54;98834.22;;;14.25;100.00
39793;BME280;26080;42.264;24.536;2023-04-15T07:58:20;98834.75;;;14.30;100.00
39793;BME280;26080;42.264;24.536;2023-04-15T08:00:45;98808.22;;;14.08;100.00
39793;BME280;26080;42.264;24.536;2023-04-15T08:03:10;98846.84;;;14.33;100.00
39793;BME280;26080;42.264;24.536;2023-04-15T08:05:36;98843.81;;;14.26;100.00
39793;BME280;26080;42.264;24.536;2023-04-15T08:08:01;98841.38;;;14.23;100.00
39793;BME280;26080;42.264;24.536;2023-04-15T08:10:28;98844.97;;;14.22;100.00
39793;BME280;26080;42.264;24.536;2023-04-15T08:12:54;98838.84;;;14.21;100.00
39793;BME280;26080;42.264;24.536;2023-04-15T08:15:20;98836.44;;;14.31;100.00
39793;BME280;26080;42.264;24.536;2023-04-15T08:17:46;98819.47;;;14.22;100.00
39793;BME280;26080;42.264;24.536;2023-04-15T08:20:13;98837.06;;;14.47;100.00
39793;BME280;26080;42.264;24.536;2023-04-15T08:22:38;98840.22;;;14.52;100.00
39793;BME280;26080;42.264;24.536;2023-04-15T08:25:04;98821.97;;;14.62;100.00
39793;BME280;26080;42.264;24.536;2023-04-15T08:27:30;98827.19;;;14.75;100.00
39793;BME280;26080;42.264;24.536;2023-04-15T08:29:55;98828.00;;;14.88;100.00
39793;BME280;26080;42.264;24.536;2023-04-15T08:32:20;98830.06;;;15.08;100.00
39793;BME280;26080;42.264;24.536;2023-04-15T08:34:47;98822.28;;;15.42;100.00
39793;BME280;26080;42.264;24.536;2023-04-15T08:37:12;98822.56;;;15.50;100.00
39793;BME280;26080;42.264;24.536;2023-04-15T08:39:38;98817.31;;;15.61;100.00
39793;BME280;26080;42.264;24.536;2023-04-15T08:42:09;98790.72;;;15.64;100.00
39793;BME280;26080;42.264;24.536;2023-04-15T08:44:36;98827.34;;;15.80;100.00
39793;BME280;26080;42.264;24.536;2023-04-15T08:47:03;98797.19;;;15.72;100.00
39793;BME280;26080;42.264;24.536;2023-04-15T08:49:31;98820.00;;;15.73;100.00
39793;BME280;26080;42.264;24.536;2023-04-15T08:51:58;98820.63;;;15.76;100.00
39793;BME280;26080;42.264;24.536;2023-04-15T08:54:25;98819.53;;;15.79;100.00
39793;BME280;26080;42.264;24.536;2023-04-15T08:56:51;98821.56;;;15.86;100.00
39793;BME280;26080;42.264;24.536;2023-04-15T08:59:19;98831.72;;;16.04;100.00
39793;BME280;26080;42.264;24.536;2023-04-15T09:01:46;98825.59;;;16.25;100.00
39793;BME280;26080;42.264;24.536;2023-04-15T09:04:11;98824.88;;;16.46;100.00
39793;BME280;26080;42.264;24.536;2023-04-15T09:06:38;98832.34;;;16.74;100.00
39793;BME280;26080;42.264;24.536;2023-04-15T09:09:04;98818.56;;;17.03;97.11
39793;BME280;26080;42.264;24.536;2023-04-15T09:11:29;98807.88;;;17.25;94.15
39793;BME280;26080;42.264;24.536;2023-04-15T09:13:55;98814.69;;;17.39;92.98
39793;BME280;26080;42.264;24.536;2023-04-15T09:16:20;98798.75;;;17.29;90.86
39793;BME280;26080;42.264;24.536;2023-04-15T09:18:46;98796.81;;;17.31;89.72
39793;BME280;26080;42.264;24.536;2023-04-15T09:21:15;98795.13;;;17.30;88.20
39793;BME280;26080;42.264;24.536;2023-04-15T09:23:54;98796.38;;;17.47;89.36
39793;BME280;26080;42.264;24.536;2023-04-15T09:26:30;98786.63;;;17.47;83.77
39793;BME280;26080;42.264;24.536;2023-04-15T09:29:05;98780.22;;;17.50;83.52
39793;BME280;26080;42.264;24.536;2023-04-15T09:31:31;98786.28;;;17.62;82.22
39793;BME280;26080;42.264;24.536;2023-04-15T09:33:57;98768.03;;;17.59;82.58
39793;BME280;26080;42.264;24.536;2023-04-15T09:36:22;98784.38;;;17.43;75.63
39793;BME280;26080;42.264;24.536;2023-04-15T09:38:58;98784.94;;;17.46;78.92
39793;BME280;26080;42.264;24.536;2023-04-15T09:41:25;98758.72;;;17.43;73.40
39793;BME280;26080;42.264;24.536;2023-04-15T09:43:51;98774.97;;;17.71;80.84
39793;BME280;26080;42.264;24.536;2023-04-15T09:46:17;98746.84;;;17.80;83.16
39793;BME280;26080;42.264;24.536;2023-04-15T09:48:42;98744.44;;;17.97;79.91
39793;BME280;26080;42.264;24.536;2023-04-15T09:51:07;98754.00;;;18.19;78.91
39793;BME280;26080;42.264;24.536;2023-04-15T09:53:34;98767.28;;;18.29;79.01
39793;BME280;26080;42.264;24.536;2023-04-15T09:56:01;98754.75;;;18.31;79.15
39793;BME280;26080;42.264;24.536;2023-04-15T09:58:32;98745.31;;;18.57;76.77
39793;BME280;26080;42.264;24.536;2023-04-15T10:00:59;98753.34;;;18.77;75.14
39793;BME280;26080;42.264;24.536;2023-04-15T10:03:30;98754.34;;;19.05;74.11
39793;BME280;26080;42.264;24.536;2023-04-15T10:05:57;98746.25;;;19.26;70.20
39793;BME280;26080;42.264;24.536;2023-04-15T10:08:28;98737.59;;;19.23;70.95
39793;BME280;26080;42.264;24.536;2023-04-15T10:11:01;98706.84;;;19.02;70.75
39793;BME280;26080;42.264;24.536;2023-04-15T10:13:50;98734.78;;;19.35;70.47
39793;BME280;26080;42.264;24.536;2023-04-15T10:16:17;98737.28;;;19.56;69.67
39793;BME280;26080;42.264;24.536;2023-04-15T10:18:45;98731.38;;;19.71;68.59
39793;BME280;26080;42.264;24.536;2023-04-15T10:21:11;98726.63;;;19.75;64.26
39793;BME280;26080;42.264;24.536;2023-04-15T10:23:38;98721.50;;;20.01;62.03
39793;BME280;26080;42.264;24.536;2023-04-15T10:26:04;98713.91;;;20.16;62.18
39793;BME280;26080;42.264;24.536;2023-04-15T10:28:30;98711.34;;;20.14;59.90
39793;BME280;26080;42.264;24.536;2023-04-15T10:30:57;98719.06;;;20.17;63.61
39793;BME280;26080;42.264;24.536;2023-04-15T10:33:24;98673.38;;;20.04;63.87
39793;BME280;26080;42.264;24.536;2023-04-15T10:35:50;98701.84;;;20.39;66.07
39793;BME280;26080;42.264;24.536;2023-04-15T10:41:26;98696.63;;;20.57;63.39
39793;BME280;26080;42.264;24.536;2023-04-15T10:43:58;98696.63;;;20.92;65.07
39793;BME280;26080;42.264;24.536;2023-04-15T10:46:38;98692.56;;;21.06;60.88
39793;BME280;26080;42.264;24.536;2023-04-15T10:49:23;98678.22;;;20.81;60.28
39793;BME280;26080;42.264;24.536;2023-04-15T10:51:57;98680.88;;;20.81;57.17
39793;BME280;26080;42.264;24.536;2023-04-15T10:57:06;98690.22;;;20.50;55.75
39793;BME280;26080;42.264;24.536;2023-04-15T10:59:36;98680.56;;;20.21;55.45
39793;BME280;26080;42.264;24.536;2023-04-15T11:02:04;98683.25;;;20.11;56.25
39793;BME280;26080;42.264;24.536;2023-04-15T11:04:56;98679.13;;;19.99;55.11
39793;BME280;26080;42.264;24.536;2023-04-15T11:07:51;98687.06;;;20.09;58.00
39793;BME280;26080;42.264;24.536;2023-04-15T11:12:44;98686.91;;;20.10;57.37
39793;BME280;26080;42.264;24.536;2023-04-15T11:17:57;98676.56;;;19.70;56.03
39793;BME280;26080;42.264;24.536;2023-04-15T11:20:23;98665.16;;;19.60;57.98
39793;BME280;26080;42.264;24.536;2023-04-15T11:22:50;98666.25;;;19.67;58.69
39793;BME280;26080;42.264;24.536;2023-04-15T11:25:23;98666.75;;;19.80;59.81
39793;BME280;26080;42.264;24.536;2023-04-15T11:27:49;98666.91;;;20.06;58.58
39793;BME280;26080;42.264;24.536;2023-04-15T11:30:19;98673.91;;;20.07;55.48
39793;BME280;26080;42.264;24.536;2023-04-15T11:32:46;98651.03;;;19.97;55.32
39793;BME280;26080;42.264;24.536;2023-04-15T11:35:12;98656.47;;;20.23;56.27
39793;BME280;26080;42.264;24.536;2023-04-15T11:37:37;98652.59;;;20.45;56.95
39793;BME280;26080;42.264;24.536;2023-04-15T11:40:03;98650.09;;;20.61;54.65
39793;BME280;26080;42.264;24.536;2023-04-15T11:42:29;98629.03;;;20.50;53.92
39793;BME280;26080;42.264;24.536;2023-04-15T11:45:14;98643.25;;;20.76;55.03
39793;BME280;26080;42.264;24.536;2023-04-15T11:47:41;98643.47;;;20.65;53.76
39793;BME280;26080;42.264;24.536;2023-04-15T11:50:20;98638.84;;;20.67;56.57
39793;BME280;26080;42.264;24.536;2023-04-15T11:52:56;98644.09;;;20.59;56.55
39793;BME280;26080;42.264;24.536;2023-04-15T11:55:23;98640.81;;;20.65;57.54
39793;BME280;26080;42.264;24.536;2023-04-15T12:00:36;98638.78;;;20.31;54.05
39793;BME280;26080;42.264;24.536;2023-04-15T12:06:10;98620.13;;;19.96;54.63
39793;BME280;26080;42.264;24.536;2023-04-15T12:11:50;98594.84;;;19.64;55.49
39793;BME280;26080;42.264;24.536;2023-04-15T12:14:46;98620.03;;;19.88;54.23
39793;BME280;26080;42.264;24.536;2023-04-15T12:17:11;98616.63;;;19.95;54.53
39793;BME280;26080;42.264;24.536;2023-04-15T12:19:41;98616.38;;;19.89;55.10
39793;BME280;26080;42.264;24.536;2023-04-15T12:22:14;98617.06;;;19.91;56.57
39793;BME280;26080;42.264;24.536;2023-04-15T12:24:41;98611.47;;;20.11;57.43
39793;BME280;26080;42.264;24.536;2023-04-15T12:27:15;98616.91;;;20.37;55.19
39793;BME280;26080;42.264;24.536;2023-04-15T12:29:41;98609.81;;;20.28;52.56
39793;BME280;26080;42.264;24.536;2023-04-15T12:32:15;98591.88;;;20.12;49.88
39793;BME280;26080;42.264;24.536;2023-04-15T12:34:43;98617.41;;;20.05;50.50
39793;BME280;26080;42.264;24.536;2023-04-15T12:37:11;98626.78;;;20.00;52.02
39793;BME280;26080;42.264;24.536;2023-04-15T12:39:40;98617.63;;;20.12;50.07
39793;BME280;26080;42.264;24.536;2023-04-15T12:42:06;98620.47;;;20.28;49.88
39793;BME280;26080;42.264;24.536;2023-04-15T12:44:32;98617.72;;;20.48;49.48
39793;BME280;26080;42.264;24.536;2023-04-15T12:46:58;98621.31;;;20.29;45.87
39793;BME280;26080;42.264;24.536;2023-04-15T12:49:24;98633.41;;;19.96;47.66
39793;BME280;26080;42.264;24.536;2023-04-15T12:51:53;98621.59;;;20.08;48.85
39793;BME280;26080;42.264;24.536;2023-04-15T12:54:19;98624.19;;;20.18;49.54
39793;BME280;26080;42.264;24.536;2023-04-15T12:56:45;98625.03;;;20.36;48.02
39793;BME280;26080;42.264;24.536;2023-04-15T12:59:11;98625.63;;;20.57;49.24
39793;BME280;26080;42.264;24.536;2023-04-15T13:01:37;98628.44;;;20.74;48.15
39793;BME280;26080;42.264;24.536;2023-04-15T13:04:03;98613.63;;;20.71;45.69
39793;BME280;26080;42.264;24.536;2023-04-15T13:06:28;98624.53;;;20.68;50.35